Private Wetterstation Wechselburg
Wetterdaten: Woche 13.05.13 - 19.05.13 (KW20)
Datum Zeit Temp. +2m Bodentemp. Temp.+5cm Temp. Wind Windchill X Diff Temp. Feuchte +2m Feuchte +5cm Sonnenschein Luftdruck Regen Wind Richtung Sonnenschein UV Taupunkt Windchill Windben
13.05.2013 00:00 5,3 C 19,1 C 6,1 C 5,1 C 4,6 C 0,0 C 84 % 85 % 0 % 1018,7 hPa 0,0 l/m 0,0 km/h (0 Bft) N 0,00 h 0,0 UV-I 2,7 C 4,6 C 0,0 km/h (0 Bft)
13.05.2013 01:00 4,7 C 18,9 C 5,6 C 4,5 C 4,1 C 0,0 C 84 % 86 % 0 % 1018,9 hPa 0,0 l/m 0,2 km/h (0 Bft) N 0,00 h 0,0 UV-I 2,2 C 4,1 C 0,8 km/h (0 Bft)
13.05.2013 02:00 4,1 C 18,8 C 5,2 C 4,0 C 3,7 C 0,0 C 85 % 86 % 0 % 1018,9 hPa 0,0 l/m 0,4 km/h (0 Bft) N 0,00 h 0,0 UV-I 1,8 C 3,7 C 0,5 km/h (0 Bft)
13.05.2013 03:00 3,7 C 18,7 C 4,8 C 3,5 C 3,3 C 0,0 C 86 % 87 % 0 % 1018,9 hPa 0,0 l/m 0,1 km/h (0 Bft) N 0,00 h 0,0 UV-I 1,5 C 3,3 C 0,0 km/h (0 Bft)
13.05.2013 04:00 3,4 C 18,6 C 4,5 C 3,2 C 2,9 C 0,0 C 87 % 87 % 0 % 1018,8 hPa 0,0 l/m 0,0 km/h (0 Bft) N 0,00 h 0,0 UV-I 1,4 C 2,9 C 0,0 km/h (0 Bft)
13.05.2013 05:00 3,2 C 18,4 C 4,4 C 3,1 C 2,8 C 0,0 C 87 % 87 % 0 % 1018,9 hPa 0,0 l/m 0,0 km/h (0 Bft) N 0,00 h 0,0 UV-I 1,3 C 2,8 C 0,0 km/h (0 Bft)
13.05.2013 06:00 3,3 C 18,1 C 4,9 C 3,7 C 3,7 C 0,4 C 88 % 87 % 11 % 1018,9 hPa 0,0 l/m 0,0 km/h (0 Bft) N 0,00 h 0,0 UV-I 1,4 C 3,7 C 0,0 km/h (0 Bft)
13.05.2013 07:00 6,3 C 17,8 C 8,2 C 12,0 C 12,0 C 5,7 C 87 % 84 % 100 % 1018,6 hPa 0,0 l/m 1,6 km/h (1 Bft) SW 1,23 h 0,0 UV-I 4,2 C 12,0 C 4,3 km/h (1 Bft)
13.05.2013 08:00 9,5 C 17,8 C 9,2 C 16,9 C 16,9 C 7,4 C 78 % 81 % 100 % 1018,3 hPa 0,0 l/m 2,6 km/h (1 Bft) S 1,00 h 0,2 UV-I 6,0 C 16,9 C 3,9 km/h (1 Bft)
13.05.2013 09:00 11,1 C 17,7 C 10,5 C 16,6 C 16,6 C 5,5 C 72 % 79 % 97 % 1018,1 hPa 0,0 l/m 4,9 km/h (1 Bft) W-SW 0,83 h 0,6 UV-I 6,3 C 16,6 C 8,9 km/h (2 Bft)
13.05.2013 10:00 12,4 C 17,8 C 12,3 C 16,2 C 16,2 C 3,8 C 68 % 74 % 91 % 1017,8 hPa 0,0 l/m 4,6 km/h (1 Bft) W-SW 0,58 h 0,6 UV-I 6,7 C 16,2 C 7,0 km/h (2 Bft)
13.05.2013 11:00 11,9 C 17,9 C 12,0 C 13,5 C 13,5 C 1,6 C 71 % 75 % 42 % 1017,6 hPa 0,0 l/m 6,2 km/h (2 Bft) SW 0,17 h 0,8 UV-I 6,8 C 13,5 C 11,4 km/h (2 Bft)
13.05.2013 12:00 13,1 C 17,9 C 13,4 C 17,2 C 17,2 C 4,1 C 65 % 69 % 97 % 1017,2 hPa 0,0 l/m 5,7 km/h (1 Bft) S 0,67 h 1,4 UV-I 6,8 C 17,2 C 6,3 km/h (2 Bft)
13.05.2013 13:00 12,9 C 18,1 C 13,8 C 16,5 C 16,5 C 3,6 C 67 % 68 % 94 % 1016,9 hPa 0,0 l/m 5,4 km/h (1 Bft) W-SW 1,23 h 1,5 UV-I 6,9 C 16,5 C 9,1 km/h (2 Bft)
13.05.2013 14:00 12,6 C 18,3 C 13,4 C 15,7 C 15,7 C 3,1 C 70 % 71 % 81 % 1016,4 hPa 0,0 l/m 3,7 km/h (1 Bft) W-SW 0,25 h 0,9 UV-I 7,2 C 15,7 C 6,8 km/h (2 Bft)
13.05.2013 15:00 12,5 C 18,4 C 13,3 C 15,4 C 15,4 C 2,9 C 71 % 72 % 76 % 1016,1 hPa 0,0 l/m 4,3 km/h (1 Bft) W-SW 0,33 h 0,8 UV-I 7,5 C 15,4 C 5,3 km/h (1 Bft)
13.05.2013 16:00 12,7 C 18,5 C 13,4 C 15,4 C 15,4 C 2,7 C 72 % 72 % 71 % 1015,8 hPa 0,0 l/m 3,5 km/h (1 Bft) S-SO 0,00 h 0,4 UV-I 7,8 C 15,4 C 4,9 km/h (1 Bft)
13.05.2013 17:00 12,7 C 18,6 C 12,9 C 14,3 C 14,3 C 1,6 C 73 % 74 % 41 % 1015,8 hPa 0,0 l/m 3,1 km/h (1 Bft) S 0,00 h 0,1 UV-I 8,0 C 14,3 C 4,1 km/h (1 Bft)
13.05.2013 18:00 12,8 C 18,7 C 13,0 C 14,3 C 14,3 C 1,6 C 74 % 76 % 41 % 1015,4 hPa 0,0 l/m 2,9 km/h (1 Bft) S 0,00 h 0,1 UV-I 8,2 C 14,3 C 6,2 km/h (2 Bft)
13.05.2013 19:00 12,4 C 18,7 C 12,4 C 12,8 C 12,8 C 0,4 C 76 % 78 % 9 % 1015,4 hPa 0,0 l/m 0,8 km/h (0 Bft) NO 0,00 h 0,0 UV-I 8,4 C 12,8 C 1,6 km/h (1 Bft)
13.05.2013 20:00 12,1 C 18,7 C 11,9 C 12,1 C 11,9 C 0,0 C 77 % 80 % 1 % 1015,0 hPa 0,0 l/m 0,6 km/h (0 Bft) N 0,00 h 0,0 UV-I 8,3 C 11,9 C 1,3 km/h (1 Bft)
13.05.2013 21:00 11,3 C 18,8 C 11,2 C 11,2 C 10,9 C 0,0 C 80 % 82 % 0 % 1014,9 hPa 0,0 l/m 0,7 km/h (0 Bft) O-SO 0,00 h 0,0 UV-I 8,0 C 10,9 C 1,7 km/h (1 Bft)
13.05.2013 22:00 11,2 C 18,7 C 11,1 C 11,1 C 10,8 C 0,0 C 80 % 82 % 0 % 1014,9 hPa 0,0 l/m 1,2 km/h (1 Bft) S-SO 0,00 h 0,0 UV-I 7,9 C 10,8 C 2,6 km/h (1 Bft)
13.05.2013 23:00 11,0 C 18,7 C 11,0 C 11,0 C 10,9 C 0,1 C 81 % 83 % 0 % 1014,8 hPa 0,0 l/m 1,7 km/h (1 Bft) S-SO 0,00 h 0,0 UV-I 7,8 C 10,9 C 2,5 km/h (1 Bft)
14.05.2013 00:00 10,5 C 18,7 C 10,4 C 10,3 C 9,9 C 0,0 C 81 % 83 % 0 % 1014,5 hPa 0,0 l/m 1,2 km/h (1 Bft) NO 0,00 h 0,0 UV-I 7,4 C 9,9 C 2,4 km/h (1 Bft)
14.05.2013 01:00 9,7 C 18,7 C 10,2 C 9,9 C 9,8 C 0,3 C 84 % 85 % 0 % 1014,2 hPa 0,0 l/m 1,2 km/h (1 Bft) S-SO 0,00 h 0,0 UV-I 7,0 C 9,8 C 2,1 km/h (1 Bft)
14.05.2013 02:00 10,0 C 18,6 C 10,5 C 10,6 C 10,6 C 0,6 C 84 % 85 % 0 % 1014,1 hPa 0,0 l/m 1,0 km/h (0 Bft) SW 0,00 h 0,0 UV-I 7,4 C 10,6 C 1,8 km/h (1 Bft)
14.05.2013 03:00 10,5 C 18,6 C 10,8 C 10,9 C 10,9 C 0,5 C 83 % 85 % 0 % 1013,9 hPa 0,0 l/m 1,2 km/h (1 Bft) SO 0,00 h 0,0 UV-I 7,7 C 10,9 C 0,9 km/h (0 Bft)
14.05.2013 04:00 10,1 C 18,6 C 10,5 C 10,5 C 10,5 C 0,4 C 84 % 85 % 0 % 1013,5 hPa 0,0 l/m 0,2 km/h (0 Bft) N 0,00 h 0,0 UV-I 7,4 C 10,5 C 0,7 km/h (0 Bft)
14.05.2013 05:00 9,3 C 18,7 C 9,8 C 9,3 C 9,2 C 0,1 C 85 % 86 % 1 % 1013,3 hPa 0,0 l/m 0,2 km/h (0 Bft) N 0,00 h 0,0 UV-I 6,8 C 9,2 C 0,3 km/h (0 Bft)
14.05.2013 06:00 9,0 C 18,6 C 10,1 C 10,0 C 10,0 C 1,0 C 86 % 86 % 27 % 1013,2 hPa 0,0 l/m 0,5 km/h (0 Bft) N 0,00 h 0,0 UV-I 6,8 C 10,0 C 0,6 km/h (0 Bft)
14.05.2013 07:00 11,9 C 18,5 C 12,5 C 18,0 C 18,0 C 6,1 C 82 % 83 % 100 % 1013,1 hPa 0,0 l/m 1,3 km/h (1 Bft) S 1,23 h 0,0 UV-I 8,8 C 18,0 C 2,8 km/h (1 Bft)
14.05.2013 08:00 13,9 C 18,4 C 13,4 C 19,4 C 19,4 C 5,5 C 73 % 78 % 100 % 1013,2 hPa 0,0 l/m 4,6 km/h (1 Bft) S-SW 1,00 h 0,2 UV-I 9,2 C 19,4 C 10,3 km/h (2 Bft)
14.05.2013 09:00 14,3 C 18,5 C 13,8 C 18,1 C 18,1 C 3,8 C 68 % 75 % 84 % 1013,4 hPa 0,0 l/m 8,4 km/h (2 Bft) W-SW 0,58 h 0,5 UV-I 8,5 C 18,1 C 12,4 km/h (3 Bft)
14.05.2013 10:00 14,7 C 18,5 C 14,3 C 18,6 C 18,6 C 4,0 C 67 % 72 % 88 % 1013,4 hPa 0,0 l/m 7,5 km/h (2 Bft) W-SW 0,75 h 0,7 UV-I 8,5 C 18,6 C 9,7 km/h (2 Bft)
14.05.2013 11:00 15,4 C 18,6 C 15,1 C 19,6 C 19,6 C 4,2 C 63 % 69 % 94 % 1013,2 hPa 0,0 l/m 4,9 km/h (1 Bft) W-SW 0,83 h 0,9 UV-I 8,5 C 19,6 C 4,7 km/h (1 Bft)
14.05.2013 12:00 16,6 C 18,8 C 16,4 C 21,1 C 21,1 C 4,5 C 58 % 65 % 99 % 1013,1 hPa 0,0 l/m 6,8 km/h (2 Bft) SW 0,77 h 1,8 UV-I 8,3 C 21,1 C 11,1 km/h (2 Bft)
14.05.2013 13:00 18,2 C 19,0 C 19,6 C 22,7 C 22,7 C 4,5 C 52 % 55 % 100 % 1012,6 hPa 0,0 l/m 5,2 km/h (1 Bft) SW 1,23 h 2,6 UV-I 8,3 C 22,7 C 6,3 km/h (2 Bft)
14.05.2013 14:00 19,1 C 19,2 C 19,7 C 23,6 C 23,6 C 4,5 C 50 % 53 % 100 % 1012,3 hPa 0,0 l/m 3,8 km/h (1 Bft) SW 1,00 h 2,3 UV-I 8,5 C 23,6 C 5,2 km/h (1 Bft)
14.05.2013 15:00 19,9 C 19,6 C 19,6 C 24,8 C 24,8 C 4,8 C 49 % 54 % 100 % 1011,9 hPa 0,0 l/m 2,9 km/h (1 Bft) S 1,00 h 1,5 UV-I 8,9 C 24,8 C 3,5 km/h (1 Bft)
14.05.2013 16:00 20,3 C 20,0 C 19,7 C 24,4 C 24,4 C 4,1 C 46 % 52 % 93 % 1011,5 hPa 0,0 l/m 3,9 km/h (1 Bft) S-SW 0,75 h 0,9 UV-I 8,1 C 24,4 C 4,5 km/h (1 Bft)
14.05.2013 17:00 19,9 C 20,2 C 19,1 C 23,5 C 23,5 C 3,6 C 44 % 51 % 93 % 1011,1 hPa 0,0 l/m 3,1 km/h (1 Bft) S 0,75 h 0,3 UV-I 7,4 C 23,5 C 4,4 km/h (1 Bft)
14.05.2013 18:00 19,2 C 20,4 C 18,3 C 21,6 C 21,6 C 2,4 C 47 % 53 % 63 % 1011,0 hPa 0,0 l/m 1,8 km/h (1 Bft) O-SO 0,08 h 0,1 UV-I 7,5 C 21,6 C 1,5 km/h (1 Bft)
14.05.2013 19:00 18,6 C 20,5 C 17,2 C 19,6 C 19,6 C 1,0 C 49 % 59 % 25 % 1010,7 hPa 0,0 l/m 0,3 km/h (0 Bft) N 0,00 h 0,0 UV-I 7,8 C 19,6 C 0,8 km/h (0 Bft)
14.05.2013 20:00 16,6 C 20,5 C 15,2 C 16,2 C 15,4 C 0,0 C 55 % 65 % 0 % 1010,7 hPa 0,0 l/m 0,0 km/h (0 Bft) N 0,00 h 0,0 UV-I 7,5 C 15,4 C 0,0 km/h (0 Bft)
14.05.2013 21:00 13,5 C 20,6 C 13,0 C 12,9 C 11,7 C 0,0 C 67 % 73 % 0 % 1010,4 hPa 0,0 l/m 0,0 km/h (0 Bft) N 0,00 h 0,0 UV-I 7,4 C 11,7 C 0,0 km/h (0 Bft)
14.05.2013 22:00 11,3 C 20,5 C 11,4 C 10,8 C 9,7 C 0,0 C 76 % 79 % 0 % 1010,3 hPa 0,0 l/m 0,0 km/h (0 Bft) N 0,00 h 0,0 UV-I 7,3 C 9,7 C 0,0 km/h (0 Bft)
14.05.2013 23:00 9,4 C 20,6 C 10,0 C 9,1 C 8,5 C 0,0 C 81 % 82 % 0 % 1009,7 hPa 0,0 l/m 0,1 km/h (0 Bft) N 0,00 h 0,0 UV-I 6,3 C 8,5 C 0,2 km/h (0 Bft)
15.05.2013 00:00 8,1 C 20,5 C 9,1 C 8,0 C 7,7 C 0,0 C 83 % 84 % 0 % 1009,3 hPa 0,0 l/m 0,0 km/h (0 Bft) N 0,00 h 0,0 UV-I 5,5 C 7,7 C 0,0 km/h (0 Bft)
15.05.2013 01:00 7,2 C 20,5 C 8,5 C 7,2 C 7,0 C 0,0 C 85 % 85 % 0 % 1008,9 hPa 0,0 l/m 0,0 km/h (0 Bft) N 0,00 h 0,0 UV-I 4,8 C 7,0 C 0,0 km/h (0 Bft)
15.05.2013 02:00 6,7 C 20,4 C 8,2 C 6,9 C 6,9 C 0,2 C 86 % 86 % 0 % 1008,3 hPa 0,0 l/m 0,0 km/h (0 Bft) N 0,00 h 0,0 UV-I 4,6 C 6,9 C 0,1 km/h (0 Bft)
15.05.2013 03:00 6,5 C 20,2 C 7,9 C 6,8 C 6,8 C 0,4 C 87 % 86 % 0 % 1007,8 hPa 0,0 l/m 0,1 km/h (0 Bft) N 0,00 h 0,0 UV-I 4,5 C 6,8 C 0,6 km/h (0 Bft)
15.05.2013 04:00 6,3 C 20,0 C 7,7 C 6,7 C 6,7 C 0,4 C 88 % 86 % 0 % 1007,1 hPa 0,0 l/m 0,1 km/h (0 Bft) N 0,00 h 0,0 UV-I 4,4 C 6,7 C 0,4 km/h (0 Bft)
15.05.2013 05:00 6,5 C 19,9 C 7,8 C 7,2 C 7,2 C 0,7 C 88 % 86 % 8 % 1007,1 hPa 0,0 l/m 0,1 km/h (0 Bft) N 0,42 h 0,0 UV-I 4,6 C 7,2 C 0,0 km/h (0 Bft)
15.05.2013 06:00 7,2 C 19,6 C 8,6 C 8,6 C 8,6 C 1,4 C 89 % 86 % 37 % 1007,0 hPa 0,0 l/m 0,2 km/h (0 Bft) N 0,67 h 0,0 UV-I 5,5 C 8,6 C 0,9 km/h (0 Bft)
15.05.2013 07:00 12,3 C 19,2 C 12,4 C 20,5 C 20,5 C 8,2 C 83 % 84 % 100 % 1006,9 hPa 0,0 l/m 0,7 km/h (0 Bft) NO 1,23 h 0,0 UV-I 9,3 C 20,5 C 1,5 km/h (1 Bft)
15.05.2013 08:00 17,1 C 19,2 C 14,5 C 24,8 C 24,8 C 7,8 C 68 % 79 % 100 % 1005,7 hPa 0,0 l/m 1,8 km/h (1 Bft) N-NO 1,00 h 0,3 UV-I 11,1 C 24,8 C 2,4 km/h (1 Bft)
15.05.2013 09:00 19,3 C 19,2 C 16,6 C 24,4 C 24,4 C 5,1 C 60 % 73 % 84 % 1005,4 hPa 0,0 l/m 3,5 km/h (1 Bft) O-NO 0,75 h 0,7 UV-I 11,3 C 24,4 C 5,4 km/h (1 Bft)
15.05.2013 10:00 20,2 C 19,3 C 18,8 C 23,5 C 23,5 C 3,3 C 57 % 66 % 83 % 1004,9 hPa 0,0 l/m 6,7 km/h (2 Bft) O-NO 0,67 h 0,5 UV-I 11,5 C 23,5 C 8,5 km/h (2 Bft)
15.05.2013 11:00 22,0 C 19,4 C 20,9 C 25,1 C 25,1 C 3,0 C 52 % 59 % 79 % 1004,6 hPa 0,0 l/m 7,3 km/h (2 Bft) O-NO 0,50 h 0,4 UV-I 11,6 C 25,1 C 8,2 km/h (2 Bft)
15.05.2013 12:00 23,7 C 19,7 C 22,0 C 27,4 C 27,4 C 3,7 C 43 % 51 % 92 % 1004,6 hPa 0,0 l/m 4,5 km/h (1 Bft) O 0,68 h 1,9 UV-I 10,2 C 27,4 C 8,3 km/h (2 Bft)
15.05.2013 13:00 24,7 C 20,1 C 25,2 C 28,5 C 28,5 C 3,9 C 38 % 41 % 97 % 1003,8 hPa 0,0 l/m 6,5 km/h (2 Bft) O-NO 1,23 h 3,2 UV-I 9,3 C 28,5 C 8,1 km/h (2 Bft)
15.05.2013 14:00 24,5 C 20,5 C 24,9 C 27,6 C 27,6 C 3,1 C 39 % 41 % 82 % 1003,3 hPa 0,0 l/m 9,4 km/h (2 Bft) O-NO 0,42 h 2,8 UV-I 9,6 C 27,6 C 13,8 km/h (3 Bft)
15.05.2013 15:00 24,6 C 21,0 C 24,4 C 27,6 C 27,6 C 3,0 C 39 % 42 % 79 % 1003,0 hPa 0,0 l/m 9,8 km/h (2 Bft) O-NO 0,33 h 1,8 UV-I 9,5 C 27,6 C 11,5 km/h (2 Bft)
15.05.2013 16:00 24,6 C 21,5 C 24,2 C 28,2 C 28,2 C 3,6 C 42 % 46 % 91 % 1002,6 hPa 0,0 l/m 6,7 km/h (2 Bft) O-SO 0,67 h 0,9 UV-I 10,7 C 28,2 C 8,6 km/h (2 Bft)
15.05.2013 17:00 23,8 C 21,9 C 23,2 C 27,2 C 27,2 C 3,4 C 46 % 51 % 88 % 1002,6 hPa 0,0 l/m 5,1 km/h (1 Bft) O-NO 0,67 h 0,3 UV-I 11,5 C 27,2 C 4,7 km/h (1 Bft)
15.05.2013 18:00 23,5 C 22,1 C 22,8 C 26,6 C 26,6 C 3,1 C 49 % 54 % 81 % 1002,2 hPa 0,0 l/m 6,1 km/h (2 Bft) O-NO 0,25 h 0,1 UV-I 12,2 C 26,6 C 7,7 km/h (2 Bft)
15.05.2013 19:00 22,0 C 22,2 C 21,0 C 22,6 C 22,6 C 0,6 C 55 % 60 % 17 % 1001,8 hPa 0,0 l/m 5,1 km/h (1 Bft) O-NO 0,00 h 0,0 UV-I 12,5 C 22,6 C 5,9 km/h (2 Bft)
15.05.2013 20:00 20,6 C 22,3 C 19,4 C 20,5 C 20,2 C 0,0 C 58 % 64 % 0 % 1001,9 hPa 0,0 l/m 4,8 km/h (1 Bft) O-NO 0,00 h 0,0 UV-I 12,0 C 20,2 C 5,8 km/h (2 Bft)
15.05.2013 21:00 19,8 C 22,2 C 18,5 C 19,6 C 19,3 C 0,0 C 61 % 68 % 0 % 1002,3 hPa 0,0 l/m 2,8 km/h (1 Bft) O-NO 0,00 h 0,0 UV-I 12,0 C 19,3 C 2,9 km/h (1 Bft)
15.05.2013 22:00 18,5 C 22,1 C 17,2 C 18,2 C 17,5 C 0,0 C 62 % 69 % 0 % 1002,2 hPa 0,0 l/m 0,4 km/h (0 Bft) NO 0,00 h 0,0 UV-I 11,1 C 17,5 C 0,7 km/h (0 Bft)
15.05.2013 23:00 16,8 C 22,1 C 15,9 C 16,5 C 15,9 C 0,0 C 67 % 73 % 0 % 1002,2 hPa 0,0 l/m 0,9 km/h (0 Bft) N-NO 0,00 h 0,0 UV-I 10,6 C 15,9 C 1,2 km/h (1 Bft)
16.05.2013 00:00 17,0 C 22,0 C 16,3 C 16,8 C 16,4 C 0,0 C 67 % 72 % 0 % 1003,2 hPa 0,0 l/m 5,2 km/h (1 Bft) S 0,00 h 0,0 UV-I 10,9 C 16,4 C 8,4 km/h (2 Bft)
16.05.2013 01:00 15,4 C 21,8 C 14,9 C 15,0 C 14,3 C 0,0 C 70 % 75 % 0 % 1003,3 hPa 0,0 l/m 1,2 km/h (1 Bft) S 0,00 h 0,0 UV-I 10,1 C 14,3 C 1,1 km/h (1 Bft)
16.05.2013 02:00 13,4 C 21,8 C 13,1 C 13,0 C 12,1 C 0,0 C 76 % 79 % 0 % 1003,4 hPa 0,0 l/m 0,3 km/h (0 Bft) N 0,00 h 0,0 UV-I 9,2 C 12,1 C 0,5 km/h (0 Bft)
16.05.2013 03:00 11,9 C 21,7 C 12,1 C 11,8 C 11,6 C 0,0 C 81 % 82 % 0 % 1002,9 hPa 0,0 l/m 0,3 km/h (0 Bft) N 0,00 h 0,0 UV-I 8,7 C 11,6 C 0,3 km/h (0 Bft)
16.05.2013 04:00 11,3 C 21,6 C 12,2 C 11,6 C 11,6 C 0,4 C 83 % 84 % 0 % 1002,5 hPa 0,0 l/m 0,0 km/h (0 Bft) N 0,00 h 0,0 UV-I 8,5 C 11,6 C 0,0 km/h (0 Bft)
16.05.2013 05:00 10,5 C 21,6 C 11,5 C 10,6 C 10,5 C 0,1 C 84 % 84 % 1 % 1002,2 hPa 0,0 l/m 0,0 km/h (0 Bft) N 0,00 h 0,0 UV-I 8,0 C 10,5 C 0,0 km/h (0 Bft)
16.05.2013 06:00 10,2 C 21,5 C 11,5 C 10,9 C 10,9 C 0,7 C 86 % 85 % 19 % 1002,2 hPa 0,0 l/m 0,0 km/h (0 Bft) N 0,00 h 0,0 UV-I 8,0 C 10,9 C 0,0 km/h (0 Bft)
16.05.2013 07:00 12,9 C 21,1 C 14,1 C 21,4 C 21,4 C 8,4 C 85 % 83 % 100 % 1002,1 hPa 0,0 l/m 0,1 km/h (0 Bft) N 1,23 h 0,0 UV-I 10,5 C 21,4 C 0,1 km/h (0 Bft)
16.05.2013 08:00 17,5 C 21,0 C 15,4 C 25,0 C 25,0 C 7,5 C 74 % 81 % 100 % 1001,3 hPa 0,0 l/m 1,1 km/h (0 Bft) O-NO 1,00 h 0,3 UV-I 12,8 C 25,0 C 2,9 km/h (1 Bft)
16.05.2013 09:00 18,8 C 20,9 C 17,6 C 22,6 C 22,6 C 3,8 C 69 % 76 % 82 % 1000,8 hPa 0,0 l/m 5,1 km/h (1 Bft) O-NO 0,67 h 0,7 UV-I 12,9 C 22,6 C 6,4 km/h (2 Bft)
16.05.2013 10:00 19,5 C 20,9 C 18,7 C 23,2 C 23,2 C 3,7 C 69 % 74 % 84 % 1000,4 hPa 0,0 l/m 5,2 km/h (1 Bft) O-NO 0,75 h 0,6 UV-I 13,6 C 23,2 C 5,8 km/h (2 Bft)
16.05.2013 11:00 20,9 C 21,0 C 20,3 C 24,4 C 24,4 C 3,5 C 66 % 71 % 91 % 999,7 hPa 0,0 l/m 5,2 km/h (1 Bft) O-NO 0,67 h 1,0 UV-I 14,4 C 24,4 C 6,8 km/h (2 Bft)
16.05.2013 12:00 21,9 C 21,1 C 21,6 C 25,8 C 25,8 C 3,9 C 61 % 66 % 97 % 999,5 hPa 0,0 l/m 5,8 km/h (2 Bft) O-NO 0,68 h 1,9 UV-I 14,1 C 25,8 C 7,2 km/h (2 Bft)
16.05.2013 13:00 22,3 C 21,3 C 22,3 C 25,4 C 25,4 C 3,1 C 53 % 57 % 82 % 999,1 hPa 0,0 l/m 7,1 km/h (2 Bft) O-NO 0,48 h 1,9 UV-I 12,3 C 25,4 C 9,4 km/h (2 Bft)
16.05.2013 14:00 22,1 C 21,6 C 22,5 C 25,2 C 25,2 C 3,0 C 55 % 58 % 79 % 998,8 hPa 0,0 l/m 7,5 km/h (2 Bft) O 0,33 h 1,7 UV-I 12,8 C 25,2 C 9,5 km/h (2 Bft)
16.05.2013 15:00 22,2 C 21,8 C 22,2 C 24,7 C 24,7 C 2,5 C 57 % 61 % 66 % 998,3 hPa 0,0 l/m 6,3 km/h (2 Bft) O 0,08 h 1,0 UV-I 13,3 C 24,7 C 7,3 km/h (2 Bft)
16.05.2013 16:00 23,0 C 22,0 C 22,8 C 26,3 C 26,3 C 3,2 C 54 % 59 % 85 % 997,7 hPa 0,0 l/m 5,6 km/h (1 Bft) O-NO 0,42 h 0,8 UV-I 13,3 C 26,3 C 6,9 km/h (2 Bft)
16.05.2013 17:00 23,5 C 22,2 C 22,7 C 25,8 C 25,8 C 2,3 C 51 % 57 % 61 % 997,5 hPa 0,0 l/m 4,6 km/h (1 Bft) O-NO 0,00 h 0,3 UV-I 12,7 C 25,8 C 6,1 km/h (2 Bft)
16.05.2013 18:00 23,0 C 22,2 C 22,1 C 23,9 C 23,9 C 0,9 C 50 % 56 % 23 % 997,5 hPa 0,0 l/m 4,9 km/h (1 Bft) O-NO 0,00 h 0,1 UV-I 12,0 C 23,9 C 5,7 km/h (1 Bft)
16.05.2013 19:00 21,2 C 22,3 C 20,4 C 21,1 C 20,8 C 0,0 C 56 % 62 % 0 % 997,6 hPa 0,0 l/m 4,7 km/h (1 Bft) O-NO 0,00 h 0,0 UV-I 12,1 C 20,8 C 5,1 km/h (1 Bft)
16.05.2013 20:00 20,7 C 22,3 C 19,7 C 20,7 C 20,6 C 0,0 C 57 % 64 % 0 % 997,8 hPa 0,0 l/m 4,6 km/h (1 Bft) O-NO 0,00 h 0,0 UV-I 11,9 C 20,6 C 5,0 km/h (1 Bft)
16.05.2013 21:00 20,5 C 22,3 C 19,2 C 20,3 C 20,0 C 0,0 C 57 % 64 % 0 % 998,2 hPa 0,0 l/m 3,4 km/h (1 Bft) O-NO 0,00 h 0,0 UV-I 11,6 C 20,0 C 3,7 km/h (1 Bft)
16.05.2013 22:00 19,8 C 22,2 C 18,6 C 19,7 C 19,4 C 0,0 C 59 % 66 % 0 % 998,3 hPa 0,0 l/m 3,8 km/h (1 Bft) O-NO 0,00 h 0,0 UV-I 11,5 C 19,4 C 4,6 km/h (1 Bft)
16.05.2013 23:00 18,5 C 22,1 C 17,6 C 18,3 C 17,8 C 0,0 C 64 % 70 % 0 % 998,0 hPa 0,0 l/m 2,0 km/h (1 Bft) O-NO 0,00 h 0,0 UV-I 11,6 C 17,8 C 1,9 km/h (1 Bft)
17.05.2013 00:00 17,0 C 22,1 C 16,1 C 16,7 C 16,1 C 0,0 C 69 % 74 % 0 % 997,7 hPa 0,0 l/m 0,3 km/h (0 Bft) O-NO 0,00 h 0,0 UV-I 11,1 C 16,1 C 1,0 km/h (0 Bft)
17.05.2013 01:00 15,8 C 22,0 C 15,1 C 15,5 C 15,0 C 0,0 C 73 % 77 % 0 % 997,5 hPa 0,0 l/m 0,3 km/h (0 Bft) O-NO 0,00 h 0,0 UV-I 10,9 C 15,0 C 0,5 km/h (0 Bft)
17.05.2013 02:00 13,8 C 22,1 C 13,4 C 13,4 C 12,7 C 0,0 C 78 % 81 % 0 % 997,4 hPa 0,0 l/m 0,2 km/h (0 Bft) N 0,00 h 0,0 UV-I 10,0 C 12,7 C 0,0 km/h (0 Bft)
17.05.2013 03:00 11,9 C 22,1 C 12,5 C 11,8 C 11,4 C 0,0 C 82 % 83 % 0 % 997,1 hPa 0,0 l/m 0,0 km/h (0 Bft) N 0,00 h 0,0 UV-I 9,0 C 11,4 C 0,0 km/h (0 Bft)
17.05.2013 04:00 11,1 C 22,0 C 12,0 C 11,3 C 11,3 C 0,2 C 84 % 84 % 0 % 996,9 hPa 0,0 l/m 0,2 km/h (0 Bft) N 0,00 h 0,0 UV-I 8,5 C 11,3 C 0,2 km/h (0 Bft)
17.05.2013 05:00 10,6 C 21,9 C 11,7 C 11,0 C 11,0 C 0,4 C 85 % 85 % 7 % 997,3 hPa 0,0 l/m 0,2 km/h (0 Bft) N 0,42 h 0,0 UV-I 8,2 C 11,0 C 0,1 km/h (0 Bft)
17.05.2013 06:00 11,4 C 21,6 C 12,3 C 12,6 C 12,6 C 1,1 C 85 % 85 % 30 % 998,2 hPa 0,0 l/m 0,1 km/h (0 Bft) N 0,00 h 0,0 UV-I 9,0 C 12,6 C 0,2 km/h (0 Bft)
17.05.2013 07:00 15,7 C 21,3 C 15,5 C 23,7 C 23,7 C 7,9 C 78 % 81 % 100 % 998,3 hPa 0,0 l/m 0,8 km/h (0 Bft) NO 1,23 h 0,0 UV-I 11,9 C 23,7 C 1,7 km/h (1 Bft)
17.05.2013 08:00 20,1 C 21,3 C 17,4 C 26,8 C 26,8 C 6,7 C 66 % 76 % 100 % 998,5 hPa 0,0 l/m 2,7 km/h (1 Bft) O-NO 1,00 h 0,3 UV-I 13,5 C 26,8 C 4,5 km/h (1 Bft)
17.05.2013 09:00 21,0 C 21,3 C 18,6 C 25,6 C 25,6 C 4,6 C 63 % 73 % 89 % 998,6 hPa 0,0 l/m 2,8 km/h (1 Bft) O-NO 0,67 h 0,6 UV-I 13,6 C 25,6 C 3,5 km/h (1 Bft)
17.05.2013 10:00 20,9 C 21,3 C 19,8 C 24,2 C 24,2 C 3,2 C 64 % 71 % 79 % 999,1 hPa 0,0 l/m 5,2 km/h (1 Bft) O-NO 0,33 h 0,6 UV-I 13,8 C 24,2 C 6,6 km/h (2 Bft)
17.05.2013 11:00 20,9 C 21,4 C 20,6 C 23,4 C 23,4 C 2,5 C 64 % 68 % 65 % 999,3 hPa 0,0 l/m 6,7 km/h (2 Bft) O-NO 0,00 h 0,9 UV-I 13,7 C 23,4 C 7,5 km/h (2 Bft)
17.05.2013 12:00 21,5 C 21,5 C 21,3 C 24,8 C 24,8 C 3,2 C 63 % 67 % 85 % 999,8 hPa 0,0 l/m 6,7 km/h (2 Bft) O-SO 0,52 h 1,7 UV-I 14,1 C 24,8 C 9,4 km/h (2 Bft)
17.05.2013 13:00 21,8 C 21,7 C 22,3 C 24,8 C 24,8 C 3,0 C 63 % 66 % 79 % 999,5 hPa 0,0 l/m 7,2 km/h (2 Bft) O-NO 0,33 h 1,7 UV-I 14,5 C 24,8 C 10,4 km/h (2 Bft)
17.05.2013 14:00 23,0 C 21,8 C 23,5 C 27,0 C 27,0 C 4,0 C 61 % 63 % 98 % 999,5 hPa 0,0 l/m 5,8 km/h (2 Bft) O-SO 0,92 h 2,0 UV-I 14,9 C 27,0 C 6,9 km/h (2 Bft)
17.05.2013 15:00 23,4 C 22,1 C 23,1 C 25,7 C 25,7 C 2,3 C 60 % 65 % 61 % 999,3 hPa 0,0 l/m 5,0 km/h (1 Bft) O-NO 0,17 h 0,7 UV-I 15,1 C 25,7 C 6,6 km/h (2 Bft)
17.05.2013 16:00 23,6 C 22,3 C 23,4 C 26,6 C 26,6 C 3,1 C 60 % 65 % 77 % 999,3 hPa 0,0 l/m 6,5 km/h (2 Bft) O-NO 0,42 h 0,8 UV-I 15,4 C 26,6 C 9,2 km/h (2 Bft)
17.05.2013 17:00 23,4 C 22,5 C 23,0 C 24,7 C 24,7 C 1,3 C 59 % 63 % 35 % 998,9 hPa 0,0 l/m 7,1 km/h (2 Bft) O-NO 0,00 h 0,2 UV-I 15,0 C 24,7 C 9,0 km/h (2 Bft)
17.05.2013 18:00 22,7 C 22,6 C 22,0 C 23,3 C 23,3 C 0,6 C 60 % 65 % 15 % 998,8 hPa 0,0 l/m 6,5 km/h (2 Bft) O-NO 0,00 h 0,0 UV-I 14,5 C 23,3 C 8,7 km/h (2 Bft)
17.05.2013 19:00 21,9 C 22,7 C 21,3 C 23,1 C 23,1 C 1,3 C 59 % 64 % 33 % 999,3 hPa 0,0 l/m 7,2 km/h (2 Bft) O-NO 0,00 h 0,0 UV-I 13,6 C 23,1 C 8,0 km/h (2 Bft)
17.05.2013 20:00 20,1 C 22,7 C 19,4 C 20,0 C 19,8 C 0,0 C 60 % 65 % 1 % 999,8 hPa 0,0 l/m 4,9 km/h (1 Bft) O-NO 0,00 h 0,0 UV-I 12,1 C 19,8 C 5,6 km/h (1 Bft)
17.05.2013 21:00 18,9 C 22,7 C 18,2 C 18,8 C 18,6 C 0,0 C 64 % 68 % 0 % 1000,1 hPa 0,0 l/m 5,1 km/h (1 Bft) O-NO 0,00 h 0,0 UV-I 11,9 C 18,6 C 6,2 km/h (2 Bft)
17.05.2013 22:00 18,4 C 22,6 C 17,7 C 18,3 C 17,9 C 0,0 C 69 % 74 % 0 % 1000,7 hPa 0,0 l/m 1,3 km/h (1 Bft) NO 0,00 h 0,0 UV-I 12,7 C 17,9 C 0,9 km/h (0 Bft)
17.05.2013 23:00 17,4 C 22,7 C 16,6 C 17,1 C 16,5 C 0,0 C 76 % 80 % 0 % 1001,2 hPa 0,0 l/m 0,1 km/h (0 Bft) N 0,00 h 0,0 UV-I 13,0 C 16,5 C 0,1 km/h (0 Bft)
18.05.2013 00:00 17,4 C 22,5 C 16,9 C 17,4 C 17,4 C 0,1 C 76 % 79 % 0 % 1001,3 hPa 0,0 l/m 0,5 km/h (0 Bft) N 0,00 h 0,0 UV-I 13,1 C 17,4 C 2,1 km/h (1 Bft)
18.05.2013 01:00 17,1 C 22,5 C 16,7 C 17,1 C 17,1 C 0,0 C 79 % 81 % 0 % 1001,9 hPa 0,0 l/m 2,3 km/h (1 Bft) SW 0,00 h 0,0 UV-I 13,4 C 17,1 C 4,6 km/h (1 Bft)
18.05.2013 02:00 15,8 C 22,6 C 16,2 C 16,1 C 16,1 C 0,3 C 82 % 83 % 0 % 1002,1 hPa 0,0 l/m 2,5 km/h (1 Bft) S-SO 0,00 h 0,0 UV-I 12,6 C 16,1 C 3,7 km/h (1 Bft)
18.05.2013 03:00 15,1 C 22,6 C 15,9 C 15,8 C 15,8 C 0,7 C 84 % 84 % 0 % 1002,1 hPa 0,0 l/m 2,4 km/h (1 Bft) W-SW 0,00 h 0,0 UV-I 12,4 C 15,8 C 3,9 km/h (1 Bft)
18.05.2013 04:00 14,8 C 22,5 C 15,7 C 15,6 C 15,6 C 0,8 C 84 % 84 % 0 % 1002,2 hPa 0,0 l/m 3,4 km/h (1 Bft) W-SW 0,00 h 0,0 UV-I 12,1 C 15,6 C 5,2 km/h (1 Bft)
18.05.2013 05:00 14,3 C 22,5 C 15,3 C 14,9 C 14,9 C 0,6 C 85 % 84 % 6 % 1002,1 hPa 0,0 l/m 4,3 km/h (1 Bft) W-SW 0,17 h 0,0 UV-I 11,8 C 14,9 C 7,3 km/h (2 Bft)
18.05.2013 06:00 13,0 C 22,7 C 14,2 C 13,6 C 13,6 C 0,5 C 87 % 85 % 13 % 1002,9 hPa 0,7 l/m 5,3 km/h (1 Bft) SW 0,00 h 0,0 UV-I 11,0 C 13,6 C 7,2 km/h (2 Bft)
18.05.2013 07:00 12,0 C 22,4 C 13,0 C 12,2 C 12,0 C 0,2 C 89 % 88 % 6 % 1004,1 hPa 6,9 l/m 7,4 km/h (2 Bft) W-SW 0,00 h 0,0 UV-I 10,2 C 12,0 C 11,6 km/h (2 Bft)
18.05.2013 08:00 11,3 C 22,3 C 12,4 C 12,1 C 12,1 C 0,7 C 89 % 90 % 20 % 1005,3 hPa 4,1 l/m 2,7 km/h (1 Bft) S-SO 0,00 h 0,0 UV-I 9,6 C 12,1 C 3,5 km/h (1 Bft)
18.05.2013 09:00 11,2 C 22,1 C 12,3 C 12,0 C 12,0 C 0,8 C 90 % 90 % 21 % 1006,5 hPa 0,7 l/m 5,1 km/h (1 Bft) SW 0,00 h 0,0 UV-I 9,6 C 12,0 C 6,2 km/h (2 Bft)
18.05.2013 10:00 11,1 C 21,9 C 12,2 C 12,0 C 12,0 C 0,9 C 89 % 90 % 25 % 1006,9 hPa 0,7 l/m 3,6 km/h (1 Bft) S 0,00 h 0,0 UV-I 9,4 C 12,0 C 5,5 km/h (1 Bft)
18.05.2013 11:00 11,6 C 21,7 C 13,1 C 13,5 C 13,5 C 1,9 C 90 % 90 % 49 % 1007,4 hPa 0,7 l/m 6,1 km/h (2 Bft) SW 0,00 h 0,1 UV-I 10,0 C 13,5 C 8,6 km/h (2 Bft)
18.05.2013 12:00 12,3 C 21,5 C 13,3 C 14,9 C 14,9 C 2,6 C 87 % 89 % 70 % 1007,9 hPa 0,0 l/m 4,6 km/h (1 Bft) SW 0,00 h 0,2 UV-I 10,3 C 14,9 C 5,3 km/h (1 Bft)
18.05.2013 13:00 13,3 C 21,2 C 13,8 C 15,8 C 15,8 C 2,5 C 83 % 89 % 66 % 1008,9 hPa 0,0 l/m 4,6 km/h (1 Bft) W-SW 0,32 h 0,2 UV-I 10,5 C 15,8 C 5,3 km/h (1 Bft)
18.05.2013 14:00 14,7 C 21,1 C 14,9 C 18,0 C 18,0 C 3,4 C 78 % 87 % 86 % 1009,5 hPa 0,0 l/m 7,0 km/h (2 Bft) W-SW 0,67 h 0,7 UV-I 10,8 C 18,0 C 7,8 km/h (2 Bft)
18.05.2013 15:00 16,8 C 21,0 C 16,9 C 20,8 C 20,8 C 4,0 C 71 % 83 % 98 % 1009,7 hPa 0,0 l/m 6,7 km/h (2 Bft) W-SW 1,00 h 0,7 UV-I 11,5 C 20,8 C 8,7 km/h (2 Bft)
18.05.2013 16:00 17,7 C 21,0 C 17,4 C 20,7 C 20,7 C 3,0 C 68 % 78 % 79 % 1009,5 hPa 0,0 l/m 5,1 km/h (1 Bft) S-SO 0,25 h 0,3 UV-I 11,7 C 20,7 C 7,4 km/h (2 Bft)
18.05.2013 17:00 18,3 C 21,0 C 17,6 C 22,8 C 22,8 C 4,5 C 63 % 70 % 100 % 1010,0 hPa 0,0 l/m 3,3 km/h (1 Bft) W-SW 1,00 h 0,2 UV-I 11,2 C 22,8 C 5,3 km/h (1 Bft)
18.05.2013 18:00 18,3 C 21,1 C 17,5 C 23,6 C 23,6 C 5,3 C 61 % 70 % 100 % 1010,2 hPa 0,0 l/m 2,5 km/h (1 Bft) W-SW 0,77 h 0,0 UV-I 10,7 C 23,6 C 3,5 km/h (1 Bft)
18.05.2013 19:00 18,8 C 21,1 C 17,0 C 21,6 C 21,6 C 2,9 C 60 % 72 % 75 % 1010,0 hPa 0,0 l/m 2,2 km/h (1 Bft) W-SW 1,23 h 0,0 UV-I 10,8 C 21,6 C 2,5 km/h (1 Bft)
18.05.2013 20:00 16,9 C 21,2 C 15,2 C 16,7 C 16,0 C 0,2 C 67 % 77 % 6 % 1010,2 hPa 0,0 l/m 0,0 km/h (0 Bft) N 0,08 h 0,0 UV-I 10,6 C 16,0 C 0,0 km/h (0 Bft)
18.05.2013 21:00 13,4 C 21,4 C 12,8 C 12,7 C 11,3 C 0,0 C 78 % 83 % 0 % 1010,6 hPa 0,0 l/m 0,0 km/h (0 Bft) N 0,00 h 0,0 UV-I 9,8 C 11,3 C 0,0 km/h (0 Bft)
18.05.2013 22:00 10,7 C 21,5 C 11,3 C 10,4 C 9,8 C 0,0 C 83 % 85 % 0 % 1010,6 hPa 0,0 l/m 0,0 km/h (0 Bft) N 0,00 h 0,0 UV-I 8,0 C 9,8 C 0,0 km/h (0 Bft)
18.05.2013 23:00 9,2 C 21,5 C 10,3 C 9,1 C 8,8 C 0,0 C 86 % 86 % 0 % 1010,7 hPa 0,0 l/m 0,0 km/h (0 Bft) N 0,00 h 0,0 UV-I 6,9 C 8,8 C 0,0 km/h (0 Bft)
19.05.2013 00:00 8,4 C 21,4 C 9,8 C 8,4 C 8,3 C 0,0 C 87 % 87 % 0 % 1010,8 hPa 0,0 l/m 0,0 km/h (0 Bft) N 0,00 h 0,0 UV-I 6,4 C 8,3 C 0,4 km/h (0 Bft)
19.05.2013 01:00 7,7 C 21,3 C 9,1 C 7,7 C 7,6 C 0,0 C 88 % 87 % 0 % 1011,0 hPa 0,0 l/m 0,1 km/h (0 Bft) N 0,00 h 0,0 UV-I 5,7 C 7,6 C 0,0 km/h (0 Bft)
19.05.2013 02:00 7,5 C 21,2 C 8,9 C 7,8 C 7,8 C 0,3 C 89 % 88 % 0 % 1010,9 hPa 0,0 l/m 0,3 km/h (0 Bft) O-NO 0,00 h 0,0 UV-I 5,8 C 7,8 C 0,7 km/h (0 Bft)
19.05.2013 03:00 7,1 C 21,1 C 8,4 C 7,3 C 7,3 C 0,2 C 89 % 88 % 0 % 1011,0 hPa 0,0 l/m 0,1 km/h (0 Bft) N 0,00 h 0,0 UV-I 5,4 C 7,3 C 0,0 km/h (0 Bft)
19.05.2013 04:00 6,1 C 20,9 C 7,7 C 6,2 C 6,2 C 0,0 C 89 % 88 % 0 % 1010,6 hPa 0,0 l/m 0,1 km/h (0 Bft) N 0,00 h 0,0 UV-I 4,5 C 6,2 C 0,3 km/h (0 Bft)
19.05.2013 05:00 5,4 C 20,7 C 7,1 C 5,5 C 5,5 C 0,1 C 89 % 88 % 3 % 1010,5 hPa 0,0 l/m 0,0 km/h (0 Bft) N 0,00 h 0,0 UV-I 3,7 C 5,5 C 0,0 km/h (0 Bft)
19.05.2013 06:00 5,4 C 20,6 C 7,4 C 6,4 C 6,4 C 1,0 C 90 % 88 % 26 % 1010,5 hPa 0,0 l/m 0,0 km/h (0 Bft) N 0,00 h 0,0 UV-I 3,9 C 6,4 C 0,0 km/h (0 Bft)
19.05.2013 07:00 7,8 C 20,5 C 9,5 C 9,9 C 9,9 C 2,1 C 92 % 89 % 57 % 1010,8 hPa 0,0 l/m 0,6 km/h (0 Bft) W-NW 0,00 h 0,0 UV-I 6,5 C 9,9 C 1,8 km/h (1 Bft)
19.05.2013 08:00 9,5 C 20,3 C 11,1 C 12,1 C 12,1 C 2,6 C 92 % 89 % 68 % 1010,6 hPa 0,0 l/m 2,5 km/h (1 Bft) O-SO 0,17 h 0,0 UV-I 8,3 C 12,1 C 3,7 km/h (1 Bft)
19.05.2013 09:00 11,8 C 20,0 C 12,9 C 17,8 C 17,8 C 6,0 C 92 % 87 % 100 % 1010,0 hPa 0,0 l/m 2,3 km/h (1 Bft) N-NO 1,00 h 0,3 UV-I 10,5 C 17,8 C 3,5 km/h (1 Bft)
19.05.2013 10:00 14,1 C 19,9 C 14,4 C 19,8 C 19,8 C 5,7 C 84 % 84 % 97 % 1008,9 hPa 0,0 l/m 3,8 km/h (1 Bft) O-NO 0,83 h 0,3 UV-I 11,5 C 19,8 C 6,3 km/h (2 Bft)
19.05.2013 11:00 15,8 C 19,9 C 15,8 C 20,7 C 20,7 C 5,0 C 80 % 80 % 100 % 1008,2 hPa 0,0 l/m 4,9 km/h (1 Bft) O-NO 1,00 h 0,4 UV-I 12,3 C 20,7 C 6,4 km/h (2 Bft)
19.05.2013 12:00 17,2 C 20,0 C 17,0 C 22,3 C 22,3 C 5,1 C 78 % 79 % 100 % 1007,9 hPa 0,0 l/m 4,2 km/h (1 Bft) O-NO 0,93 h 1,4 UV-I 13,3 C 22,3 C 4,3 km/h (1 Bft)
19.05.2013 13:00 19,7 C 20,2 C 20,3 C 24,1 C 24,1 C 4,4 C 73 % 72 % 100 % 1007,4 hPa 0,0 l/m 4,7 km/h (1 Bft) O-NO 1,07 h 2,0 UV-I 14,7 C 24,1 C 6,1 km/h (2 Bft)
19.05.2013 14:00 21,4 C 20,2 C 21,8 C 25,9 C 25,9 C 4,5 C 66 % 65 % 100 % 1006,7 hPa 0,0 l/m 4,7 km/h (1 Bft) O-SO 1,00 h 1,8 UV-I 14,8 C 25,9 C 6,0 km/h (2 Bft)
19.05.2013 15:00 22,3 C 20,7 C 22,1 C 26,7 C 26,7 C 4,4 C 61 % 62 % 100 % 1006,3 hPa 0,0 l/m 5,0 km/h (1 Bft) O 1,00 h 1,1 UV-I 14,3 C 26,7 C 6,5 km/h (2 Bft)
19.05.2013 16:00 23,1 C 21,2 C 22,6 C 27,8 C 27,8 C 4,7 C 59 % 62 % 100 % 1005,8 hPa 0,0 l/m 4,2 km/h (1 Bft) O-NO 1,00 h 0,7 UV-I 14,7 C 27,8 C 6,1 km/h (2 Bft)
19.05.2013 17:00 23,3 C 21,6 C 22,8 C 27,7 C 27,7 C 4,4 C 59 % 62 % 100 % 1004,9 hPa 0,0 l/m 4,3 km/h (1 Bft) O-NO 1,00 h 0,3 UV-I 14,8 C 27,7 C 4,9 km/h (1 Bft)
19.05.2013 18:00 23,2 C 21,9 C 22,6 C 27,0 C 27,0 C 3,8 C 57 % 61 % 97 % 1004,3 hPa 0,0 l/m 4,5 km/h (1 Bft) O 1,05 h 0,1 UV-I 14,4 C 27,0 C 5,9 km/h (2 Bft)
19.05.2013 19:00 22,6 C 22,0 C 21,9 C 25,6 C 25,6 C 3,0 C 58 % 61 % 78 % 1004,1 hPa 0,0 l/m 3,1 km/h (1 Bft) O-NO 0,95 h 0,0 UV-I 13,9 C 25,6 C 4,1 km/h (1 Bft)
19.05.2013 20:00 21,0 C 22,1 C 20,1 C 21,1 C 21,0 C 0,2 C 61 % 65 % 5 % 1004,3 hPa 0,0 l/m 2,6 km/h (1 Bft) O-NO 0,00 h 0,0 UV-I 13,2 C 21,0 C 2,6 km/h (1 Bft)
19.05.2013 21:00 19,0 C 22,1 C 18,3 C 18,8 C 18,6 C 0,0 C 66 % 70 % 0 % 1004,6 hPa 0,0 l/m 2,5 km/h (1 Bft) O-NO 0,00 h 0,0 UV-I 12,4 C 18,6 C 4,2 km/h (1 Bft)
19.05.2013 22:00 15,3 C 22,6 C 14,9 C 14,9 C 14,0 C 0,0 C 76 % 80 % 0 % 1006,6 hPa 3,4 l/m 2,0 km/h (1 Bft) O 0,00 h 0,0 UV-I 11,1 C 14,0 C 2,5 km/h (1 Bft)
19.05.2013 23:00 12,4 C 22,7 C 13,3 C 12,5 C 12,5 C 0,2 C 85 % 88 % 0 % 1005,9 hPa 4,1 l/m 2,8 km/h (1 Bft) SW 0,00 h 0,0 UV-I 9,9 C 12,5 C 3,7 km/h (1 Bft)
Min-Datum _ 13.05.13 13.05.13 13.05.13 13.05.13 13.05.13 13.05.13 15.05.13 15.05.13 13.05.13 17.05.13 - 13.05.13 - - 13.05.13 13.05.13 13.05.13 13.05.13
_ Min-Zeit 05:55 09:20 05:25 05:35 04:35 00:00 13:15 13:30 00:00 04:15 - 00:00 - - 00:00 05:55 04:35 00:00
Minimum _ 3,0 C 17,7 C 4,3 C 3,0 C 2,8 C 0,0 C 36 % 37 % 0 % 996,8 hPa - 0,0 km/h (0 Bft) - - 0,0 UV-I 1,1 C 2,8 C 0,0 km/h (0 Bft)
Max-Datum _ 15.05.13 17.05.13 15.05.13 15.05.13 15.05.13 16.05.13 19.05.13 18.05.13 13.05.13 13.05.13 18.05.13 15.05.13 - 13.05.13 15.05.13 17.05.13 15.05.13 16.05.13
_ Max-Zeit 13:25 20:25 13:35 13:00 13:00 07:25 08:45 11:05 07:00 05:35 07:00 15:00 - 07:00 13:00 16:15 13:00 00:35
Maximum _ 24,9 C 22,8 C 26,4 C 29,4 C 29,4 C 9,9 C 93 % 91 % 100 % 1019,6 hPa 6,9 l/m 12,6 km/h
O-NO (3 Bft)
- 0,32 h 3,3 UV-I 16,1 C 29,4 C 27,4 km/h
S (4 Bft)
Durchschnitt _ 15,2 C 20,7 C 15,2 C 17,2 C 17,0 C 2,0 C 71 % 75 % 43 % 1006,9 hPa #21,3 l/m 3,0 km/h (1 Bft) O-NO #54:34 h 0,9 UV-I 9,7 C 17,0 C 4,1 km/h (1 Bft)
2013 www.wetterstation-wechselburg.de